Time;durP1;ratioP1;P1;durP2;ratioP2;P2;SDS_P1;SDS_P2;PMS_P1;PMS_P2;Temp;Humidity;BMP_temperature;BMP_pressure;BME280_temperature;BME280_humidity;BME280_pressure;Samples;Min_cycle;Max_cycle;Signal;HPM_P1;HPM_P2
2021/06/07 00:00:24;;;;;;;;;9.50;9.25;;;;;21.68;50.81;101776.78;5083048;27;46896;-50
2021/06/07 00:02:50;;;;;;;;;9.67;9.67;;;;;21.67;51.14;101775.03;5079842;27;45760;-51
2021/06/07 00:05:16;;;;;;;;;10.67;9.00;;;;;21.67;51.49;101783.16;5093521;27;45658;-49
2021/06/07 00:07:42;;;;;;;;;8.00;7.33;;;;;21.64;51.44;101774.31;5097379;27;45349;-51
2021/06/07 00:10:11;;;;;;;;;8.75;8.75;;;;;21.62;50.91;101781.66;5093048;27;47260;-50
2021/06/07 00:12:38;;;;;;;;;8.75;8.50;;;;;21.59;51.20;101782.66;5096098;27;45333;-50
2021/06/07 00:15:07;;;;;;;;;7.25;7.25;;;;;21.57;51.13;101776.44;5100094;27;45771;-49
2021/06/07 00:17:33;;;;;;;;;8.00;7.75;;;;;21.53;51.50;101782.97;5098951;27;45690;-49
2021/06/07 00:19:59;;;;;;;;;7.67;7.67;;;;;21.50;51.43;101768.75;5099588;27;48125;-48
2021/06/07 00:22:24;;;;;;;;;6.00;5.67;;;;;21.49;51.85;101765.19;5097672;27;45639;-48
2021/06/07 00:24:50;;;;;;;;;9.00;7.33;;;;;21.49;51.65;101764.31;5101656;27;45534;-50
2021/06/07 00:27:16;;;;;;;;;8.75;8.00;;;;;21.45;51.74;101767.13;5097748;27;45320;-51
2021/06/07 00:29:41;;;;;;;;;8.33;7.00;;;;;21.42;51.89;101761.03;5101462;27;47430;-51
2021/06/07 00:32:07;;;;;;;;;10.00;9.00;;;;;21.40;51.71;101750.31;5099972;27;45852;-48
2021/06/07 00:34:33;;;;;;;;;5.25;5.25;;;;;21.39;51.91;101761.19;5100860;27;45388;-49
2021/06/07 00:36:58;;;;;;;;;9.00;9.00;;;;;21.31;51.44;101756.16;5094586;27;45420;-49
2021/06/07 00:39:24;;;;;;;;;8.75;8.75;;;;;21.22;52.17;101763.84;5095483;27;47250;-48
2021/06/07 00:41:50;;;;;;;;;10.00;9.00;;;;;21.13;52.36;101766.03;5100463;27;45715;-49
2021/06/07 00:44:22;;;;;;;;;6.00;6.00;;;;;21.10;52.14;101757.22;5100560;27;45437;-50
2021/06/07 00:46:48;;;;;;;;;7.00;7.00;;;;;21.10;52.28;101760.78;5094616;27;45749;-49
2021/06/07 00:49:15;;;;;;;;;11.50;9.50;;;;;21.09;52.27;101750.94;5101113;27;47428;-46
2021/06/07 00:51:42;;;;;;;;;12.00;11.50;;;;;21.08;52.22;101761.78;5100667;27;45727;-52
2021/06/07 00:54:09;;;;;;;;;6.75;6.75;;;;;21.08;52.06;101759.09;5088266;27;45356;-51
2021/06/07 00:56:35;;;;;;;;;8.00;8.00;;;;;21.07;52.21;101757.34;5100620;27;45422;-50
2021/06/07 00:59:01;;;;;;;;;6.33;6.33;;;;;21.08;52.54;101761.78;5101134;27;48233;-51
2021/06/07 01:01:28;;;;;;;;;7.67;7.67;;;;;21.06;52.57;101753.78;5097119;27;45381;-49
2021/06/07 01:03:56;;;;;;;;;7.00;7.00;;;;;21.06;52.16;101755.59;5099780;27;45371;-51
2021/06/07 01:06:22;;;;;;;;;12.00;10.75;;;;;21.06;51.79;101750.19;5101147;27;45270;-53
2021/06/07 01:08:48;;;;;;;;;9.50;9.50;;;;;21.06;52.09;101750.19;5100847;27;47536;-51
2021/06/07 01:11:14;;;;;;;;;7.00;6.75;;;;;21.07;52.51;101754.63;5098594;27;45316;-54
2021/06/07 01:13:40;;;;;;;;;7.25;7.25;;;;;21.07;52.20;101751.94;5102336;27;45677;-51
2021/06/07 01:16:06;;;;;;;;;10.50;8.25;;;;;21.04;52.45;101744.88;5105913;27;45404;-49
2021/06/07 01:18:32;;;;;;;;;9.50;6.75;;;;;21.04;52.51;101755.66;5099034;27;47303;-47
2021/06/07 01:21:10;;;;;;;;;9.00;9.00;;;;;21.03;52.40;101750.34;5092923;27;46002;-49
2021/06/07 01:23:36;;;;;;;;;8.75;8.75;;;;;20.97;52.03;101751.53;5112456;27;45437;-47
2021/06/07 01:26:04;;;;;;;;;7.75;7.75;;;;;20.93;52.46;101749.91;5095381;27;45702;-52
2021/06/07 01:28:30;;;;;;;;;8.00;8.00;;;;;20.91;52.24;101759.91;5097623;27;46175;-49
2021/06/07 01:30:57;;;;;;;;;9.00;8.50;;;;;20.90;52.38;101760.88;5097421;27;45380;-52
2021/06/07 01:33:25;;;;;;;;;11.00;10.25;;;;;20.91;52.28;101769.84;5097337;27;45380;-53
2021/06/07 01:35:53;;;;;;;;;9.50;9.50;;;;;20.90;52.47;101755.47;5100960;27;45327;-50
2021/06/07 01:38:20;;;;;;;;;10.00;10.00;;;;;20.87;52.31;101755.63;5099092;27;48569;-53
2021/06/07 01:40:49;;;;;;;;;10.00;10.00;;;;;20.83;52.31;101754.00;5100213;27;45573;-49
2021/06/07 01:43:15;;;;;;;;;8.75;8.75;;;;;20.79;52.72;101760.50;5098806;27;45547;-47
2021/06/07 01:45:43;;;;;;;;;11.33;11.33;;;;;20.79;53.01;101765.91;5100143;27;45430;-51
2021/06/07 01:48:11;;;;;;;;;9.33;9.33;;;;;20.75;52.90;101757.09;5098833;27;47850;-51
2021/06/07 01:50:37;;;;;;;;;9.50;9.25;;;;;20.72;53.01;101754.53;5087193;27;46070;-49
2021/06/07 01:53:05;;;;;;;;;7.00;7.00;;;;;20.69;52.73;101751.97;5099399;27;45435;-51
2021/06/07 01:55:43;;;;;;;;;11.67;11.67;;;;;20.67;53.08;101750.28;5093570;27;45382;-50
2021/06/07 01:58:10;;;;;;;;;8.33;8.00;;;;;20.63;52.83;101752.28;5094413;27;48481;-49
2021/06/07 02:00:40;;;;;;;;;21.00;20.25;;;;;20.57;53.35;101753.41;5099726;27;45781;-51
2021/06/07 02:03:07;;;;;;;;;11.00;11.00;;;;;20.59;53.54;101752.50;5098774;27;45422;-48
2021/06/07 02:05:37;;;;;;;;;11.75;10.25;;;;;20.59;53.60;101756.06;5085478;27;45368;-51
2021/06/07 02:08:10;;;;;;;;;10.50;10.50;;;;;20.61;53.27;101742.50;5096762;27;47509;-50
2021/06/07 02:10:58;;;;;;;;;10.00;10.00;;;;;20.60;53.64;101748.84;5099900;27;45283;-47
2021/06/07 02:13:24;;;;;;;;;8.33;8.33;;;;;20.57;53.70;101752.53;5099575;27;45363;-49
2021/06/07 02:15:56;;;;;;;;;9.50;8.00;;;;;20.53;52.97;101754.50;5099505;27;45472;-49
2021/06/07 02:18:21;;;;;;;;;9.25;8.25;;;;;20.51;53.74;101752.84;5099513;27;48372;-51
2021/06/07 02:20:47;;;;;;;;;8.75;8.75;;;;;20.49;53.09;101754.75;5097633;27;45720;-48
2021/06/07 02:23:13;;;;;;;;;11.33;11.33;;;;;20.47;53.24;101756.63;5099404;27;45342;-48
2021/06/07 02:25:39;;;;;;;;;11.75;10.75;;;;;20.46;53.20;101749.50;5099609;27;45389;-52
2021/06/07 02:28:13;;;;;;;;;6.33;6.33;;;;;20.44;53.60;101743.28;5099583;27;48358;-50
2021/06/07 02:30:40;;;;;;;;;11.50;9.25;;;;;20.44;53.53;101746.84;5097748;27;45364;-50
2021/06/07 02:33:05;;;;;;;;;9.00;8.75;;;;;20.44;53.45;101749.53;5105937;27;45589;-47
2021/06/07 02:35:32;;;;;;;;;6.75;6.75;;;;;20.43;53.48;101747.78;5089862;27;45416;-50
2021/06/07 02:37:57;;;;;;;;;8.00;8.00;;;;;20.41;53.68;101751.47;5092224;27;46228;-50
2021/06/07 02:40:26;;;;;;;;;8.25;8.25;;;;;20.41;53.87;101749.66;5085462;27;45605;-48
2021/06/07 02:42:51;;;;;;;;;7.00;7.00;;;;;20.40;53.67;101752.44;5086958;27;45380;-49
2021/06/07 02:45:18;;;;;;;;;9.33;9.00;;;;;20.38;53.41;101752.50;5085505;27;45504;-48
2021/06/07 02:47:45;;;;;;;;;10.00;8.00;;;;;20.32;53.13;101744.69;5090378;27;47154;-51
2021/06/07 02:50:13;;;;;;;;;10.33;9.00;;;;;20.28;53.86;101748.47;5080865;27;45404;-51
2021/06/07 02:52:47;;;;;;;;;10.75;10.50;;;;;20.23;54.08;101747.81;5088952;27;45410;-48
2021/06/07 02:55:18;;;;;;;;;8.50;8.50;;;;;20.19;54.03;101743.50;5094977;27;45799;-51
2021/06/07 02:57:44;;;;;;;;;10.25;10.00;;;;;20.15;53.75;101747.28;5091123;27;47186;-49
2021/06/07 03:00:12;;;;;;;;;9.25;9.25;;;;;20.06;54.12;101748.56;5086448;27;45361;-50
2021/06/07 03:02:37;;;;;;;;;9.00;8.33;;;;;20.01;53.85;101750.59;5089527;27;45431;-49
2021/06/07 03:05:03;;;;;;;;;7.75;7.75;;;;;20.00;54.15;101754.25;5094548;27;45674;-49
2021/06/07 03:07:29;;;;;;;;;8.00;8.00;;;;;20.01;54.30;101755.13;5093120;27;48399;-47
2021/06/07 03:09:55;;;;;;;;;10.00;10.00;;;;;19.92;54.30;101757.25;5110724;27;45355;-49
2021/06/07 03:12:20;;;;;;;;;8.75;8.25;;;;;19.81;54.48;101756.84;5087853;27;45347;-49
2021/06/07 03:14:46;;;;;;;;;12.25;11.00;;;;;19.80;54.74;101756.91;5098421;27;45551;-51
2021/06/07 03:17:11;;;;;;;;;9.75;9.75;;;;;19.75;54.54;101750.88;5087367;27;47796;-47
2021/06/07 03:19:36;;;;;;;;;12.00;11.00;;;;;19.72;54.73;101757.28;5094327;27;45604;-48
2021/06/07 03:22:03;;;;;;;;;9.25;9.25;;;;;19.71;54.64;101758.22;5096619;27;45326;-51
2021/06/07 03:24:28;;;;;;;;;10.50;10.50;;;;;19.72;54.87;101757.28;5087795;27;45360;-50
2021/06/07 03:26:54;;;;;;;;;8.75;8.75;;;;;19.71;54.88;101754.66;5085979;27;47341;-50
2021/06/07 03:29:19;;;;;;;;;7.75;7.75;;;;;19.69;54.72;101752.00;5093111;27;45322;-49
2021/06/07 03:31:44;;;;;;;;;14.00;10.25;;;;;19.71;55.03;101749.25;5089157;27;45582;-49
2021/06/07 03:34:10;;;;;;;;;10.50;10.25;;;;;19.64;54.60;101746.81;5093367;27;45401;-53
2021/06/07 03:36:35;;;;;;;;;9.75;7.50;;;;;19.60;54.83;101749.72;5093428;27;47509;-52
2021/06/07 03:39:03;;;;;;;;;9.75;9.25;;;;;19.59;54.96;101753.34;5098582;27;45374;-49
2021/06/07 03:41:28;;;;;;;;;13.00;11.25;;;;;19.59;54.84;101748.84;5087951;27;45244;-52
2021/06/07 03:43:54;;;;;;;;;8.25;8.25;;;;;19.60;55.11;101750.59;5094933;27;45339;-47
2021/06/07 03:46:19;;;;;;;;;10.00;9.00;;;;;19.64;55.03;101748.63;5094115;27;46925;-48
2021/06/07 03:48:45;;;;;;;;;11.00;11.00;;;;;19.65;54.99;101747.69;5098606;27;45392;-48
2021/06/07 03:51:10;;;;;;;;;10.00;8.00;;;;;19.66;55.19;101750.31;5098928;27;45358;-46
2021/06/07 03:53:36;;;;;;;;;11.50;9.00;;;;;19.66;54.66;101744.94;5088756;27;45292;-47
2021/06/07 03:56:02;;;;;;;;;10.25;9.50;;;;;19.60;54.74;101745.22;5099006;27;47100;-50
2021/06/07 03:58:29;;;;;;;;;10.00;10.00;;;;;19.55;54.56;101746.31;5096279;27;45419;-50
2021/06/07 04:00:54;;;;;;;;;8.75;8.75;;;;;19.51;55.13;101745.56;5089203;27;45464;-49
2021/06/07 04:03:20;;;;;;;;;11.00;10.50;;;;;19.52;55.11;101746.44;5097591;27;45395;-52
2021/06/07 04:05:45;;;;;;;;;8.50;8.50;;;;;19.54;55.17;101745.41;5091223;27;46695;-49
2021/06/07 04:08:12;;;;;;;;;7.00;7.00;;;;;19.58;55.17;101744.41;5088624;27;45795;-51
2021/06/07 04:10:40;;;;;;;;;10.75;10.75;;;;;19.60;55.03;101736.25;5083879;27;45916;-52
2021/06/07 04:13:05;;;;;;;;;10.00;10.00;;;;;19.60;54.71;101738.94;5082195;27;45551;-48
2021/06/07 04:15:32;;;;;;;;;9.25;9.25;;;;;19.61;55.20;101741.56;5093685;27;47160;-49
2021/06/07 04:17:57;;;;;;;;;11.75;10.50;;;;;19.61;54.87;101746.97;5088373;27;45375;-51
2021/06/07 04:20:26;;;;;;;;;10.75;10.75;;;;;19.62;54.80;101734.38;5096850;27;45313;-52
2021/06/07 04:22:52;;;;;;;;;13.25;13.25;;;;;19.61;54.94;101741.56;5096865;27;45622;-51
2021/06/07 04:25:21;;;;;;;;;5.00;3.75;;;;;19.62;54.65;101739.75;5096943;27;48331;-48
2021/06/07 04:27:47;;;;;;;;;9.33;9.33;;;;;19.60;54.96;101738.94;5097192;27;45733;-52
2021/06/07 04:30:17;;;;;;;;;13.67;13.67;;;;;19.59;54.87;101747.97;5096801;27;45382;-48
2021/06/07 04:32:46;;;;;;;;;11.00;9.67;;;;;19.59;54.68;101745.28;5093648;27;45283;-51
2021/06/07 04:35:13;;;;;;;;;11.50;10.25;;;;;19.58;54.92;101741.72;5079279;27;48549;-48
2021/06/07 04:37:42;;;;;;;;;10.33;10.00;;;;;19.60;54.88;101738.94;5096823;27;45368;-49
2021/06/07 04:40:10;;;;;;;;;12.50;9.75;;;;;19.61;54.70;101736.19;5086194;27;45382;-48
2021/06/07 04:42:36;;;;;;;;;11.67;11.00;;;;;19.63;54.58;101739.69;5096697;27;45511;-46
2021/06/07 04:45:04;;;;;;;;;12.67;12.67;;;;;19.63;54.49;101739.69;5096257;27;47958;-51
2021/06/07 04:47:29;;;;;;;;;13.33;13.33;;;;;19.63;54.65;101745.06;5094797;27;45849;-46
2021/06/07 04:49:54;;;;;;;;;11.00;11.00;;;;;19.60;54.56;101747.91;5114011;27;45369;-52
2021/06/07 04:52:22;;;;;;;;;11.25;10.00;;;;;19.60;54.32;101745.22;5096620;27;45408;-47
2021/06/07 04:54:47;;;;;;;;;9.50;9.25;;;;;19.59;54.54;101737.19;5094505;27;48430;-47
2021/06/07 04:57:13;;;;;;;;;11.00;10.00;;;;;19.59;54.30;101742.59;5091736;27;45634;-49
2021/06/07 04:59:38;;;;;;;;;12.75;12.50;;;;;19.59;54.43;101745.28;5100757;27;45331;-47
2021/06/07 05:02:04;;;;;;;;;12.67;12.33;;;;;19.60;54.54;101749.72;5098288;27;45710;-49
2021/06/07 05:04:29;;;;;;;;;10.33;9.33;;;;;19.60;54.24;101747.03;5100836;27;48230;-50
2021/06/07 05:06:55;;;;;;;;;15.25;14.75;;;;;19.56;54.19;101746.25;5099999;27;45306;-49
2021/06/07 05:09:20;;;;;;;;;9.25;9.25;;;;;19.54;54.38;101744.53;5101380;27;45217;-52
2021/06/07 05:11:46;;;;;;;;;11.25;9.75;;;;;19.54;54.46;101745.41;5098012;27;45547;-48
2021/06/07 05:14:11;;;;;;;;;12.00;11.00;;;;;19.53;54.48;101748.19;5100608;27;47174;-49
2021/06/07 05:16:37;;;;;;;;;8.75;8.75;;;;;19.51;54.40;101750.94;5100133;27;45274;-47
2021/06/07 05:19:02;;;;;;;;;13.75;12.75;;;;;19.50;54.40;101745.63;5097900;27;45460;-50
2021/06/07 05:21:28;;;;;;;;;13.00;11.00;;;;;19.47;54.36;101749.34;5094706;27;45598;-51
2021/06/07 05:23:53;;;;;;;;;17.00;16.50;;;;;19.45;54.32;101744.97;5094012;27;47662;-49
2021/06/07 05:26:18;;;;;;;;;12.75;11.00;;;;;19.45;54.72;101748.53;5099896;27;45465;-49
2021/06/07 05:28:44;;;;;;;;;15.00;13.50;;;;;19.46;54.71;101742.19;5096599;27;45896;-51
2021/06/07 05:31:09;;;;;;;;;9.75;9.00;;;;;19.50;54.83;101748.31;5096373;27;45553;-50
2021/06/07 05:33:35;;;;;;;;;11.50;11.25;;;;;19.51;54.74;101748.25;5100964;27;47175;-52
2021/06/07 05:36:01;;;;;;;;;12.50;9.50;;;;;19.54;54.21;101745.41;5099886;27;45587;-49
2021/06/07 05:38:26;;;;;;;;;11.00;11.00;;;;;19.55;54.39;101744.50;5096833;27;45495;-47
2021/06/07 05:40:54;;;;;;;;;12.00;11.00;;;;;19.58;54.52;101748.91;5096786;27;45408;-49
2021/06/07 05:43:23;;;;;;;;;11.75;11.25;;;;;19.59;54.44;101743.47;5096467;27;48332;-47
2021/06/07 05:45:50;;;;;;;;;10.00;10.00;;;;;19.61;54.43;101751.47;5097281;27;46167;-51
2021/06/07 05:48:15;;;;;;;;;12.50;12.50;;;;;19.62;54.31;101753.22;5093450;27;48134;-54
2021/06/07 05:50:41;;;;;;;;;12.00;12.00;;;;;19.64;54.18;101751.34;5099919;27;45607;-53
2021/06/07 05:53:07;;;;;;;;;15.75;12.25;;;;;19.65;54.14;101753.94;5087584;27;47255;-50
2021/06/07 05:55:39;;;;;;;;;13.75;12.50;;;;;19.67;54.04;101749.38;5092394;27;45552;-53
2021/06/07 05:58:08;;;;;;;;;14.00;14.00;;;;;19.69;54.00;101752.00;5094289;27;45541;-53
2021/06/07 06:00:38;;;;;;;;;14.75;14.00;;;;;19.72;53.69;101759.97;5114859;27;45333;-52
2021/06/07 06:03:04;;;;;;;;;13.25;13.25;;;;;19.75;53.71;101758.94;5092394;27;46364;-49
2021/06/07 06:05:30;;;;;;;;;14.50;14.50;;;;;19.78;53.68;101761.50;5093525;27;45454;-50
2021/06/07 06:07:55;;;;;;;;;14.25;12.00;;;;;19.80;53.68;101762.31;5092908;27;45446;-53
2021/06/07 06:10:21;;;;;;;;;12.50;11.00;;;;;19.83;53.62;101760.38;5093346;27;45380;-49
2021/06/07 06:12:47;;;;;;;;;14.75;13.25;;;;;19.87;53.27;101763.81;5087049;27;45520;-52
2021/06/07 06:15:16;;;;;;;;;11.25;10.50;;;;;19.87;53.20;101761.13;5088895;27;45472;-53
2021/06/07 06:17:42;;;;;;;;;15.25;15.25;;;;;19.86;53.14;101760.25;5100336;27;45370;-49
2021/06/07 06:20:09;;;;;;;;;15.25;13.75;;;;;19.89;53.32;101767.31;5095543;27;45393;-51
2021/06/07 06:22:34;;;;;;;;;15.75;14.75;;;;;19.88;53.06;101758.34;5093402;27;46361;-50
2021/06/07 06:25:00;;;;;;;;;12.50;12.25;;;;;19.89;52.74;101765.47;5099702;27;45613;-52
2021/06/07 06:27:26;;;;;;;;;14.00;13.00;;;;;19.87;52.77;101766.50;5092915;27;45514;-51
2021/06/07 06:29:51;;;;;;;;;13.00;13.00;;;;;19.85;52.98;101771.09;5090761;27;45482;-50
2021/06/07 06:32:17;;;;;;;;;11.25;10.25;;;;;19.84;52.73;101767.50;5097837;27;48347;-50
2021/06/07 06:34:43;;;;;;;;;11.75;10.75;;;;;19.85;52.83;101768.38;5099668;27;45751;-51
2021/06/07 06:37:09;;;;;;;;;12.50;11.25;;;;;19.86;52.81;101771.00;5099030;27;45465;-51
2021/06/07 06:39:35;;;;;;;;;14.00;14.00;;;;;19.90;52.74;101774.44;5098058;27;45726;-51
2021/06/07 06:42:02;;;;;;;;;13.00;12.75;;;;;19.92;52.99;101775.25;5099268;27;47795;-49
2021/06/07 06:44:27;;;;;;;;;12.25;12.00;;;;;19.94;52.55;101767.97;5099721;27;45663;-51
2021/06/07 06:46:53;;;;;;;;;16.50;15.00;;;;;19.94;52.22;101762.56;5099450;27;45315;-52
2021/06/07 06:49:19;;;;;;;;;14.25;13.25;;;;;19.96;52.41;101760.72;5094258;27;46043;-48
2021/06/07 06:51:44;;;;;;;;;12.00;12.00;;;;;19.96;52.16;101764.28;5096649;27;47055;-53
2021/06/07 06:54:10;;;;;;;;;12.75;11.00;;;;;19.95;52.48;101762.53;5099050;27;45719;-52
2021/06/07 06:56:36;;;;;;;;;15.00;14.00;;;;;19.95;52.63;101757.16;5081201;27;45489;-51
2021/06/07 06:59:02;;;;;;;;;11.25;10.50;;;;;19.97;52.25;101757.06;5100480;27;45482;-55
2021/06/07 07:01:28;;;;;;;;;12.50;12.25;;;;;19.98;52.14;101757.00;5107456;27;48310;-54
2021/06/07 07:03:53;;;;;;;;;16.00;16.00;;;;;20.01;52.34;101766.75;5098445;27;45346;-53
2021/06/07 07:06:19;;;;;;;;;13.25;13.00;;;;;20.04;51.89;101769.31;5099559;27;45562;-52
2021/06/07 07:08:45;;;;;;;;;14.33;11.00;;;;;20.04;52.17;101758.53;5092315;27;45234;-54
2021/06/07 07:11:11;;;;;;;;;12.50;12.50;;;;;20.06;51.61;101763.84;5098613;27;47235;-52
2021/06/07 07:13:38;;;;;;;;;12.00;12.00;;;;;20.06;51.91;101764.72;5096266;27;45436;-52
2021/06/07 07:16:04;;;;;;;;;12.50;11.00;;;;;20.09;52.08;101770.00;5095389;27;45412;-50
2021/06/07 07:18:30;;;;;;;;;11.75;11.75;;;;;20.13;52.13;101768.91;5094982;27;45460;-52
2021/06/07 07:20:56;;;;;;;;;13.75;11.75;;;;;20.17;51.84;101773.22;5095607;27;45359;-54
2021/06/07 07:23:21;;;;;;;;;15.25;15.25;;;;;20.19;51.80;101771.31;5091586;27;45310;-53
2021/06/07 07:25:48;;;;;;;;;13.25;12.25;;;;;20.20;51.84;101778.50;5093476;27;45692;-55
2021/06/07 07:28:14;;;;;;;;;14.50;13.50;;;;;20.21;51.72;101769.47;5098323;27;45229;-52
2021/06/07 07:30:40;;;;;;;;;15.25;14.50;;;;;20.21;51.79;101766.75;5095777;27;47141;-53
2021/06/07 07:33:06;;;;;;;;;14.00;13.00;;;;;20.22;51.79;101767.63;5096385;27;45835;-52
2021/06/07 07:35:33;;;;;;;;;10.25;10.25;;;;;20.22;51.47;101765.81;5096056;27;45942;-52
2021/06/07 07:37:59;;;;;;;;;11.25;10.00;;;;;20.24;51.59;101765.75;5111023;27;45379;-54
2021/06/07 07:40:25;;;;;;;;;11.75;11.00;;;;;20.27;51.75;101766.47;5097761;27;45498;-54
2021/06/07 07:42:55;;;;;;;;;22.00;19.75;;;;;20.32;51.38;101766.25;5095918;27;45407;-50
2021/06/07 07:45:25;;;;;;;;;16.00;12.75;;;;;20.36;51.11;101767.00;5093793;27;45344;-53
2021/06/07 07:47:52;;;;;;;;;13.50;11.50;;;;;20.36;50.88;101767.00;5093600;27;45493;-53
2021/06/07 07:50:18;;;;;;;;;10.50;10.50;;;;;20.38;51.02;101770.50;5093501;27;48108;-53
2021/06/07 07:52:45;;;;;;;;;14.50;14.00;;;;;20.40;50.87;101768.59;5097246;27;45832;-51
2021/06/07 07:55:13;;;;;;;;;13.25;12.25;;;;;20.42;50.81;101769.44;5098090;27;45498;-53
2021/06/07 07:57:40;;;;;;;;;10.75;10.00;;;;;20.45;50.71;101762.06;5098232;27;45775;-54
2021/06/07 08:00:09;;;;;;;;;11.75;10.25;;;;;20.48;50.73;101766.47;5089508;27;47260;-53
2021/06/07 08:02:34;;;;;;;;;11.00;10.50;;;;;20.53;50.97;101769.81;5096278;27;45697;-51
2021/06/07 08:05:00;;;;;;;;;9.25;9.25;;;;;20.59;50.80;101768.69;5095287;27;45805;-51
2021/06/07 08:07:26;;;;;;;;;12.25;10.50;;;;;20.63;50.57;101764.88;5097372;27;45721;-48
2021/06/07 08:09:51;;;;;;;;;14.00;14.00;;;;;20.67;50.36;101767.34;5093476;27;47046;-52
2021/06/07 08:12:17;;;;;;;;;10.25;10.25;;;;;20.70;50.93;101772.59;5094852;27;45952;-47
2021/06/07 08:14:42;;;;;;;;;11.75;11.75;;;;;20.74;50.80;101755.34;5095690;27;45403;-49
2021/06/07 08:17:08;;;;;;;;;11.50;11.50;;;;;20.78;50.48;101762.31;5098250;27;45553;-50
2021/06/07 08:19:34;;;;;;;;;10.00;10.00;;;;;20.81;50.08;101756.78;5095825;27;48148;-49
2021/06/07 08:22:00;;;;;;;;;15.25;14.00;;;;;20.85;50.47;101762.94;5097181;27;45716;-49
2021/06/07 08:24:25;;;;;;;;;13.75;12.25;;;;;20.88;49.15;101751.97;5098214;27;45344;-48
2021/06/07 08:26:51;;;;;;;;;10.75;10.00;;;;;20.89;49.37;101760.94;5093093;27;45550;-49
2021/06/07 08:29:17;;;;;;;;;15.00;15.00;;;;;20.92;49.10;101756.25;5095881;27;46172;-48
2021/06/07 08:31:42;;;;;;;;;11.25;11.00;;;;;20.92;48.98;101756.25;5114399;27;45396;-52
2021/06/07 08:34:08;;;;;;;;;11.75;11.75;;;;;20.93;49.59;101757.13;5099762;27;45293;-48
2021/06/07 08:36:34;;;;;;;;;13.25;12.25;;;;;20.96;49.83;101760.59;5078088;27;45567;-48
2021/06/07 08:38:59;;;;;;;;;14.50;13.50;;;;;20.99;49.69;101751.47;5099764;27;48205;-52
2021/06/07 08:41:26;;;;;;;;;9.50;9.50;;;;;21.02;49.47;101756.69;5097660;27;45504;-48
2021/06/07 08:43:52;;;;;;;;;14.00;11.75;;;;;21.05;49.39;101756.53;5094647;27;45493;-51
2021/06/07 08:46:18;;;;;;;;;14.25;11.00;;;;;21.08;48.89;101753.69;5097741;27;45646;-49
2021/06/07 08:48:44;;;;;;;;;9.50;9.50;;;;;21.11;49.45;101753.56;5096051;27;47498;-51
2021/06/07 08:51:10;;;;;;;;;12.75;11.50;;;;;21.14;48.84;101758.81;5098313;27;45510;-50
2021/06/07 08:53:37;;;;;;;;;14.75;12.00;;;;;21.15;49.16;101757.84;5113589;27;45513;-48
2021/06/07 08:56:03;;;;;;;;;13.25;13.25;;;;;21.19;49.19;101763.97;5099914;27;45727;-52
2021/06/07 08:58:29;;;;;;;;;16.50;13.00;;;;;21.23;48.81;101752.09;5099594;27;46855;-49
2021/06/07 09:00:54;;;;;;;;;10.00;9.50;;;;;21.26;49.21;101757.34;5099840;27;45443;-48
2021/06/07 09:03:21;;;;;;;;;12.50;11.50;;;;;21.30;49.00;101754.41;5095151;27;46874;-48
2021/06/07 09:05:55;;;;;;;;;11.75;11.75;;;;;21.37;49.11;101763.09;5099676;27;45563;-52
2021/06/07 09:08:25;;;;;;;;;12.25;10.50;;;;;21.39;48.86;101755.78;5099546;27;47580;-54
2021/06/07 09:10:53;;;;;;;;;12.00;12.00;;;;;21.41;47.91;101765.56;5099445;27;45537;-53
2021/06/07 09:13:22;;;;;;;;;9.00;9.00;;;;;21.42;48.23;101755.63;5099969;27;45395;-53
2021/06/07 09:15:49;;;;;;;;;10.50;9.50;;;;;21.45;47.94;101755.47;5100712;27;45570;-51
2021/06/07 09:18:36;;;;;;;;;11.00;11.00;;;;;21.49;47.21;101753.50;5100519;27;48036;-49
2021/06/07 09:21:14;;;;;;;;;7.50;7.50;;;;;21.49;47.39;101754.38;5099913;27;45551;-51
2021/06/07 09:23:49;;;;;;;;;9.00;7.00;;;;;21.50;47.07;101753.44;5097545;27;45389;-48
2021/06/07 09:26:29;;;;;;;;;9.50;8.00;;;;;21.51;46.86;101746.19;5094001;27;45597;-52
2021/06/07 09:29:03;;;;;;;;;7.75;7.75;;;;;21.53;45.97;101750.56;5098930;27;48344;-48
2021/06/07 09:31:33;;;;;;;;;9.50;8.50;;;;;21.54;46.12;101756.84;5094511;27;45358;-53
2021/06/07 09:34:03;;;;;;;;;9.00;8.75;;;;;21.56;46.21;101757.63;5100576;27;45477;-50
2021/06/07 09:36:30;;;;;;;;;10.00;7.75;;;;;21.59;46.11;101758.34;5098815;27;45874;-52
2021/06/07 09:39:23;;;;;;;;;10.25;10.00;;;;;21.62;45.80;101754.63;5094035;27;46456;-50
2021/06/07 09:41:50;;;;;;;;;9.00;6.75;;;;;21.64;45.53;101753.59;5097190;27;45533;-50
2021/06/07 09:44:33;;;;;;;;;10.75;9.50;;;;;21.68;44.91;101760.56;5097114;27;45491;-50
2021/06/07 09:47:19;;;;;;;;;8.00;8.00;;;;;21.71;45.14;101756.84;5096088;27;45532;-52
2021/06/07 09:49:56;;;;;;;;;7.00;6.75;;;;;21.74;44.36;101762.09;5096262;27;48319;-51
2021/06/07 09:52:32;;;;;;;;;9.00;9.00;;;;;21.77;45.04;101753.84;5095115;27;45545;-52
2021/06/07 09:55:14;;;;;;;;;8.50;7.50;;;;;21.81;44.89;101757.25;5097943;27;45496;-50
2021/06/07 09:57:42;;;;;;;;;6.00;6.00;;;;;21.85;45.46;101748.00;5093479;27;45765;-54
2021/06/07 10:00:09;;;;;;;;;8.25;6.50;;;;;21.89;44.80;101747.78;5092226;27;46382;-52
2021/06/07 10:02:36;;;;;;;;;5.25;5.25;;;;;21.93;44.52;101749.38;5094690;27;45250;-52
2021/06/07 10:05:04;;;;;;;;;7.25;7.00;;;;;21.98;44.85;101749.13;5099554;27;45379;-52
2021/06/07 10:07:29;;;;;;;;;7.25;7.25;;;;;22.02;44.36;101751.59;5098772;27;45417;-53
2021/06/07 10:10:13;;;;;;;;;9.50;8.75;;;;;22.08;44.17;101746.84;5099136;27;47667;-55
2021/06/07 10:12:40;;;;;;;;;9.00;9.00;;;;;22.13;43.94;101745.66;5097137;27;45478;-53
2021/06/07 10:15:12;;;;;;;;;9.25;8.50;;;;;22.16;43.94;101742.78;5094241;27;45515;-54
2021/06/07 10:17:38;;;;;;;;;10.00;10.00;;;;;22.19;44.46;101744.44;5093000;27;45542;-54
2021/06/07 10:22:35;;;;;;;;;7.00;7.00;;;;;22.28;43.17;101738.53;5097474;27;46111;-55
2021/06/07 10:25:01;;;;;;;;;7.00;7.00;;;;;22.32;43.32;101740.09;5074907;27;45329;-50
2021/06/07 10:27:26;;;;;;;;;7.00;7.00;;;;;22.35;43.23;101734.53;5110501;27;45878;-52
2021/06/07 10:29:52;;;;;;;;;7.00;7.00;;;;;22.39;42.69;101737.94;5092704;27;46819;-52
2021/06/07 10:32:28;;;;;;;;;6.50;6.50;;;;;22.44;42.37;101735.84;5094626;27;47297;-52
2021/06/07 10:35:02;;;;;;;;;10.00;10.00;;;;;22.47;42.03;101728.44;5096765;27;45411;-53
2021/06/07 10:37:31;;;;;;;;;13.75;12.00;;;;;22.52;42.84;101733.63;5093410;27;45559;-54
2021/06/07 10:40:29;;;;;;;;;11.00;11.00;;;;;22.55;41.93;101737.00;5095402;27;47899;-53
2021/06/07 10:43:00;;;;;;;;;16.50;16.50;;;;;22.59;42.38;101727.75;5088830;27;45274;-53
2021/06/07 10:45:30;;;;;;;;;20.50;20.50;;;;;22.63;42.00;101725.78;5088389;27;45369;-53
2021/06/07 10:47:56;;;;;;;;;9.00;9.00;;;;;22.71;41.72;101733.44;5089095;27;45750;-54
2021/06/07 10:50:26;;;;;;;;;7.67;7.67;;;;;22.78;41.38;101738.44;5094701;27;47688;-56
2021/06/07 10:52:59;;;;;;;;;11.50;11.50;;;;;22.86;41.37;101725.34;5088973;27;45934;-54
2021/06/07 10:55:24;;;;;;;;;10.25;10.00;;;;;22.94;41.46;101734.88;5096483;27;45320;-54
2021/06/07 10:58:03;;;;;;;;;12.25;11.00;;;;;23.01;40.53;101731.75;5091505;27;45519;-54
2021/06/07 11:00:29;;;;;;;;;10.00;10.00;;;;;23.03;41.12;101716.28;5087263;27;47432;-56
2021/06/07 11:02:58;;;;;;;;;7.75;7.75;;;;;23.07;40.93;101720.56;5109767;27;49480;-55
2021/06/07 11:05:27;;;;;;;;;7.00;7.00;;;;;23.13;40.84;101728.34;5108175;27;45566;-55
2021/06/07 11:08:08;;;;;;;;;9.25;9.25;;;;;23.24;40.94;101721.38;5089290;27;45632;-54
2021/06/07 11:10:42;;;;;;;;;8.00;8.00;;;;;23.38;40.58;101724.19;5111054;27;48414;-53
2021/06/07 11:13:12;;;;;;;;;7.00;7.00;;;;;23.55;40.76;101718.63;5092771;27;45724;-54
2021/06/07 11:15:51;;;;;;;;;9.50;9.50;;;;;23.74;40.58;101724.69;5091006;27;45901;-54
2021/06/07 11:18:31;;;;;;;;;9.00;9.00;;;;;23.89;40.10;101713.91;5094103;27;45333;-56
2021/06/07 11:21:09;;;;;;;;;8.75;8.25;;;;;24.04;39.80;101713.81;5087588;27;47237;-56